Time;durP1;ratioP1;P1;durP2;ratioP2;P2;SDS_P1;SDS_P2;PMS_P1;PMS_P2;Temp;Humidity;BMP_temperature;BMP_pressure;BME280_temperature;BME280_humidity;BME280_pressure;Samples;Min_cycle;Max_cycle;Signal;HPM_P1;HPM_P2
2024/02/04 00:00:38;;;;;;;1.70;1.10;;;;;;;6.45;94.84;96570.73;109107;1272;22654;-76
2024/02/04 00:03:32;;;;;;;3.70;1.70;;;;;;;6.40;95.19;96569.50;108941;1272;244923;-76
2024/02/04 00:06:04;;;;;;;2.50;1.80;;;;;;;6.35;95.23;96569.31;109125;1269;23748;-76
2024/02/04 00:08:37;;;;;;;2.30;1.30;;;;;;;6.32;95.11;96573.69;109098;1266;22543;-76
2024/02/04 00:11:16;;;;;;;2.90;2.30;;;;;;;6.33;96.03;96567.54;109140;1273;22616;-76
2024/02/04 00:13:47;;;;;;;2.40;1.70;;;;;;;6.32;95.69;96567.96;109093;1273;22533;-76
2024/02/04 00:16:24;;;;;;;2.90;1.90;;;;;;;6.31;96.06;96577.11;109082;1272;22716;-77
2024/02/04 00:19:02;;;;;;;2.30;1.50;;;;;;;6.27;96.04;96576.61;109137;1269;22509;-76
2024/02/04 00:21:34;;;;;;;2.30;1.60;;;;;;;6.23;96.02;96575.38;109105;1269;22534;-76
2024/02/04 00:24:08;;;;;;;2.20;1.50;;;;;;;6.21;96.14;96578.63;109099;1272;22513;-76
2024/02/04 00:26:45;;;;;;;3.70;2.20;;;;;;;6.20;96.30;96572.30;109094;1273;23763;-76
2024/02/04 00:29:16;;;;;;;2.80;1.70;;;;;;;6.17;96.39;96562.41;109106;1249;22990;-76
2024/02/04 00:31:52;;;;;;;2.70;2.00;;;;;;;6.17;96.49;96553.98;109139;1273;22538;-76
2024/02/04 00:34:24;;;;;;;2.10;1.50;;;;;;;6.18;96.78;96548.31;109117;1273;25677;-76
2024/02/04 00:36:55;;;;;;;2.60;2.10;;;;;;;6.18;97.02;96543.47;109083;1273;22540;-76
2024/02/04 00:39:28;;;;;;;2.70;1.50;;;;;;;6.17;97.20;96539.94;109125;1266;22541;-76
2024/02/04 00:42:02;;;;;;;3.10;1.60;;;;;;;6.19;97.60;96529.44;109117;1272;22516;-76
2024/02/04 00:44:37;;;;;;;2.00;1.60;;;;;;;6.18;97.53;96538.05;109100;1272;22537;-76
2024/02/04 00:47:13;;;;;;;4.00;1.90;;;;;;;6.15;97.47;96533.71;109084;1266;22570;-76
2024/02/04 00:49:50;;;;;;;1.50;1.40;;;;;;;6.14;97.56;96533.29;109119;1272;22658;-76
2024/02/04 00:52:22;;;;;;;2.50;1.60;;;;;;;6.10;97.73;96533.95;109095;1273;22513;-76
2024/02/04 00:54:54;;;;;;;3.90;1.90;;;;;;;6.07;97.65;96530.19;109071;1272;22598;-76
2024/02/04 00:57:33;;;;;;;2.70;1.80;;;;;;;6.04;97.84;96533.09;109100;1272;25635;-76
2024/02/04 01:00:04;;;;;;;2.90;1.20;;;;;;;6.02;98.09;96537.19;109110;1273;25424;-76
2024/02/04 01:02:37;;;;;;;2.10;1.50;;;;;;;6.02;98.18;96534.60;109131;1266;22692;-76
2024/02/04 01:05:12;;;;;;;1.80;1.70;;;;;;;6.01;98.38;96534.96;109155;1269;24189;-76
2024/02/04 01:07:48;;;;;;;2.20;1.10;;;;;;;5.98;98.66;96537.63;109115;1265;22587;-76
2024/02/04 01:10:21;;;;;;;2.60;1.60;;;;;;;5.97;98.90;96533.83;109089;1269;22559;-76
2024/02/04 01:12:53;;;;;;;2.70;1.50;;;;;;;5.97;99.51;96537.36;109129;1266;22557;-76
2024/02/04 01:15:26;;;;;;;2.60;1.80;;;;;;;5.96;99.56;96532.35;109072;1273;22537;-76
2024/02/04 01:18:02;;;;;;;1.90;1.30;;;;;;;5.94;99.54;96535.02;109113;1273;22614;-76
2024/02/04 01:20:36;;;;;;;2.00;1.60;;;;;;;5.95;99.56;96523.88;109092;1272;22458;-76
2024/02/04 01:23:08;;;;;;;2.20;1.50;;;;;;;5.97;99.60;96523.67;109078;1273;22640;-76
2024/02/04 01:25:44;;;;;;;1.50;1.30;;;;;;;5.97;99.46;96511.52;109078;1269;24228;-76
2024/02/04 01:28:20;;;;;;;2.20;1.50;;;;;;;5.94;99.41;96501.71;109124;1266;24199;-76
2024/02/04 01:30:54;;;;;;;1.80;1.40;;;;;;;5.93;99.49;96496.23;109068;1273;22521;-76
2024/02/04 01:33:26;;;;;;;3.60;1.70;;;;;;;5.89;99.75;96499.91;109090;1273;25337;-76
2024/02/04 01:36:00;;;;;;;1.30;1.20;;;;;;;5.86;99.79;96495.30;109095;1273;22683;-76
2024/02/04 01:38:31;;;;;;;1.80;1.40;;;;;;;5.87;99.74;96490.35;109134;1272;22495;-76
2024/02/04 01:41:08;;;;;;;2.80;1.30;;;;;;;5.84;99.80;96488.81;109107;1273;22595;-76
2024/02/04 01:43:43;;;;;;;2.10;1.60;;;;;;;5.83;99.78;96494.59;109094;1269;22636;-76
2024/02/04 01:46:14;;;;;;;1.20;1.00;;;;;;;5.84;99.96;96495.02;109087;1273;25291;-76
2024/02/04 01:48:49;;;;;;;1.80;1.10;;;;;;;5.84;99.98;96494.07;109109;1267;22555;-76
2024/02/04 01:51:21;;;;;;;2.50;1.50;;;;;;;5.82;99.99;96501.42;109118;1272;24241;-76
2024/02/04 01:53:56;;;;;;;2.90;1.70;;;;;;;5.82;100.00;96501.36;109096;1265;22560;-76
2024/02/04 01:56:28;;;;;;;2.70;1.40;;;;;;;5.80;100.00;96495.95;109131;1273;22529;-76
2024/02/04 01:59:04;;;;;;;1.90;1.20;;;;;;;5.80;100.00;96491.89;109099;1265;22540;-76
2024/02/04 02:01:37;;;;;;;2.00;1.50;;;;;;;5.76;100.00;96480.89;109108;1273;22834;-76
2024/02/04 02:04:09;;;;;;;1.90;1.20;;;;;;;5.75;100.00;96476.63;109084;1265;22610;-76
2024/02/04 02:06:44;;;;;;;3.00;1.40;;;;;;;5.75;100.00;96470.10;109083;1272;23209;-76
2024/02/04 02:09:18;;;;;;;1.50;1.40;;;;;;;5.74;100.00;96461.00;109118;1266;23189;-76
2024/02/04 02:11:54;;;;;;;2.30;1.50;;;;;;;5.72;100.00;96460.77;109090;1272;22471;-76
2024/02/04 02:14:33;;;;;;;2.00;1.20;;;;;;;5.71;100.00;96460.23;109105;1273;24299;-76
2024/02/04 02:17:17;;;;;;;2.80;1.60;;;;;;;5.72;100.00;96463.61;109139;1273;22470;-76
2024/02/04 02:19:59;;;;;;;3.10;1.20;;;;;;;5.71;100.00;96463.13;109132;1266;22583;-76
2024/02/04 02:22:43;;;;;;;1.40;1.30;;;;;;;5.69;100.00;96474.80;109137;1273;24222;-76
2024/02/04 02:25:16;;;;;;;1.70;1.20;;;;;;;5.68;100.00;96472.05;109106;1272;22991;-76
2024/02/04 02:27:53;;;;;;;2.20;1.50;;;;;;;5.68;100.00;96461.16;109169;1253;22643;-76
2024/02/04 02:30:25;;;;;;;1.80;1.50;;;;;;;5.68;100.00;96468.95;109133;1273;25985;-76
2024/02/04 02:32:57;;;;;;;1.70;1.40;;;;;;;5.67;100.00;96469.95;109066;1269;23843;-76
2024/02/04 02:35:30;;;;;;;1.30;0.80;;;;;;;5.70;100.00;96469.59;109113;1266;22829;-76
2024/02/04 02:38:20;;;;;;;3.20;1.70;;;;;;;5.70;100.00;96476.80;109110;1273;22526;-76
2024/02/04 02:41:02;;;;;;;2.40;1.90;;;;;;;5.69;100.00;96476.68;109090;1273;25289;-76
2024/02/04 02:43:41;;;;;;;2.50;1.40;;;;;;;5.72;100.00;96478.60;109086;1266;25991;-76
2024/02/04 02:46:13;;;;;;;1.50;1.20;;;;;;;5.72;100.00;96474.77;109094;1273;25507;-76
2024/02/04 02:48:44;;;;;;;1.40;1.30;;;;;;;5.70;100.00;96469.27;109108;1272;22823;-76
2024/02/04 02:51:18;;;;;;;1.50;1.20;;;;;;;5.71;100.00;96469.92;109103;1266;23361;-76
2024/02/04 02:53:50;;;;;;;1.80;1.30;;;;;;;5.71;100.00;96470.08;109058;1273;23679;-76
2024/02/04 02:56:26;;;;;;;1.40;1.20;;;;;;;5.72;100.00;96469.34;109124;1266;22563;-76
2024/02/04 02:58:57;;;;;;;2.10;1.50;;;;;;;5.74;100.00;96466.14;109077;1273;22583;-76
2024/02/04 03:01:30;;;;;;;1.80;1.30;;;;;;;5.74;100.00;96465.41;109157;1266;22519;-76
2024/02/04 03:04:02;;;;;;;1.30;1.10;;;;;;;5.76;100.00;96458.47;109045;1266;22526;-76
2024/02/04 03:06:34;;;;;;;1.30;1.10;;;;;;;5.76;100.00;96457.95;109162;1258;22465;-76
2024/02/04 03:09:08;;;;;;;1.90;1.40;;;;;;;5.77;100.00;96452.30;109105;1267;22648;-76
2024/02/04 03:11:45;;;;;;;1.50;1.40;;;;;;;5.75;100.00;96460.48;109104;1266;25297;-76
2024/02/04 03:14:19;;;;;;;2.60;0.90;;;;;;;5.74;100.00;96467.04;109129;1266;22531;-76
2024/02/04 03:16:51;;;;;;;1.20;1.10;;;;;;;5.73;100.00;96471.25;109148;1269;22539;-76
2024/02/04 03:19:24;;;;;;;2.90;1.10;;;;;;;5.72;100.00;96467.98;109172;1270;22557;-76
2024/02/04 03:21:56;;;;;;;1.20;1.00;;;;;;;5.75;100.00;96468.83;109069;1266;22705;-76
2024/02/04 03:24:27;;;;;;;0.90;0.80;;;;;;;5.75;100.00;96478.36;109072;1266;22723;-76
2024/02/04 03:27:01;;;;;;;2.10;1.30;;;;;;;5.73;100.00;96486.45;109141;1272;22527;-76
2024/02/04 03:29:33;;;;;;;2.10;1.40;;;;;;;5.73;100.00;96486.45;109090;1266;22487;-74
2024/02/04 03:32:08;;;;;;;2.80;1.20;;;;;;;5.71;100.00;96489.43;109059;1269;22515;-76
2024/02/04 03:34:46;;;;;;;1.10;1.00;;;;;;;5.74;100.00;96489.49;109131;1266;22538;-76
2024/02/04 03:37:20;;;;;;;1.10;1.00;;;;;;;5.77;100.00;96496.73;109123;1272;22589;-76
2024/02/04 03:39:53;;;;;;;1.00;0.90;;;;;;;5.77;100.00;96501.31;109132;1271;22533;-76
2024/02/04 03:42:27;;;;;;;2.30;1.20;;;;;;;5.77;100.00;96494.46;109098;1272;22760;-76
2024/02/04 03:45:01;;;;;;;2.10;1.40;;;;;;;5.79;100.00;96491.25;109062;1269;22597;-76
2024/02/04 03:47:33;;;;;;;1.80;1.40;;;;;;;5.82;100.00;96510.70;109108;1266;22514;-76
2024/02/04 03:50:04;;;;;;;1.40;1.00;;;;;;;5.85;100.00;96521.23;109100;1272;22547;-76
2024/02/04 03:52:38;;;;;;;0.60;0.60;;;;;;;5.85;100.00;96531.07;109123;1272;22624;-76
2024/02/04 03:55:12;;;;;;;1.10;0.80;;;;;;;5.73;100.00;96536.42;109140;1266;23476;-76
2024/02/04 03:57:43;;;;;;;1.30;0.80;;;;;;;5.59;100.00;96528.92;109086;1269;22635;-76
2024/02/04 04:00:17;;;;;;;2.00;0.60;;;;;;;5.50;100.00;96534.20;109139;1266;22533;-76
2024/02/04 04:02:48;;;;;;;0.40;0.40;;;;;;;5.44;100.00;96518.67;109134;1269;22933;-76
2024/02/04 04:05:19;;;;;;;1.60;0.50;;;;;;;5.37;100.00;96531.77;109115;1272;25486;-76
2024/02/04 04:07:50;;;;;;;1.20;0.50;;;;;;;5.35;100.00;96532.85;109089;1269;22516;-76
2024/02/04 04:10:24;;;;;;;0.80;0.50;;;;;;;5.38;100.00;96513.15;109154;1272;25206;-76
2024/02/04 04:12:55;;;;;;;0.10;0.10;;;;;;;5.42;99.58;96502.45;109129;1272;22577;-76
2024/02/04 04:15:30;;;;;;;0.50;0.40;;;;;;;5.44;98.50;96497.96;109090;1265;22487;-76
2024/02/04 04:18:05;;;;;;;0.80;0.50;;;;;;;5.45;97.55;96518.95;109107;1269;25978;-76
2024/02/04 04:20:36;;;;;;;0.30;0.20;;;;;;;5.38;97.57;96527.61;109122;1273;22543;-75
2024/02/04 04:23:10;;;;;;;0.50;0.40;;;;;;;5.31;97.71;96520.17;109129;1269;24133;-76
2024/02/04 04:25:41;;;;;;;0.60;0.30;;;;;;;5.27;97.48;96501.21;109117;1269;22535;-76
2024/02/04 04:28:15;;;;;;;0.70;0.40;;;;;;;5.32;96.95;96506.81;109099;1272;23483;-76
2024/02/04 04:30:45;;;;;;;1.40;0.30;;;;;;;5.36;95.76;96508.13;109115;1272;22533;-76
2024/02/04 04:33:19;;;;;;;1.10;0.50;;;;;;;5.40;95.38;96519.75;109084;1269;22613;-76
2024/02/04 04:35:52;;;;;;;0.40;0.30;;;;;;;5.43;93.81;96506.42;109129;1267;22475;-76
2024/02/04 04:38:23;;;;;;;1.30;0.70;;;;;;;5.50;92.85;96511.80;109126;1266;22553;-76
2024/02/04 04:40:54;;;;;;;0.90;0.50;;;;;;;5.51;92.34;96489.47;109107;1272;22516;-75
2024/02/04 04:43:26;;;;;;;0.30;0.30;;;;;;;5.53;91.80;96521.73;109074;1272;23915;-75
2024/02/04 04:46:02;;;;;;;0.20;0.20;;;;;;;5.48;92.35;96511.89;109133;1272;22525;-75
2024/02/04 04:48:40;;;;;;;0.70;0.30;;;;;;;5.47;92.33;96506.66;109113;1272;22514;-75
2024/02/04 04:51:11;;;;;;;0.30;0.20;;;;;;;5.43;92.40;96520.25;109097;1272;22513;-75
2024/02/04 04:53:43;;;;;;;1.20;0.40;;;;;;;5.39;92.71;96512.48;109102;1269;27752;-75
2024/02/04 04:56:14;;;;;;;2.50;0.50;;;;;;;5.35;93.09;96508.67;109120;1269;24209;-75
2024/02/04 04:58:48;;;;;;;0.30;0.30;;;;;;;5.35;93.27;96518.59;109091;1272;22535;-75
2024/02/04 05:01:19;;;;;;;1.00;0.40;;;;;;;5.35;93.39;96514.12;109129;1272;22723;-76
2024/02/04 05:03:50;;;;;;;0.60;0.50;;;;;;;5.39;93.17;96513.75;109103;1267;24216;-76
2024/02/04 05:06:21;;;;;;;0.60;0.40;;;;;;;5.38;93.09;96517.42;109107;1272;22536;-75
2024/02/04 05:08:55;;;;;;;0.40;0.30;;;;;;;5.34;93.18;96507.48;109123;1249;22555;-75
2024/02/04 05:11:28;;;;;;;0.90;0.40;;;;;;;5.37;93.17;96513.57;109125;1273;22708;-75
2024/02/04 05:14:05;;;;;;;0.50;0.30;;;;;;;5.37;93.25;96509.20;109129;1272;24607;-75
2024/02/04 05:16:38;;;;;;;0.90;0.50;;;;;;;5.36;93.36;96500.63;109100;1273;22834;-75
2024/02/04 05:19:12;;;;;;;0.30;0.20;;;;;;;5.35;93.41;96494.05;109153;1266;22543;-76
2024/02/04 05:21:47;;;;;;;0.50;0.40;;;;;;;5.33;93.62;96494.37;109135;1269;22532;-75
2024/02/04 05:24:20;;;;;;;0.20;0.20;;;;;;;5.29;93.64;96490.39;109088;1272;23376;-75
2024/02/04 05:26:54;;;;;;;2.50;0.60;;;;;;;5.29;93.82;96493.44;109141;1269;23348;-75
2024/02/04 05:29:27;;;;;;;2.40;0.90;;;;;;;5.30;94.17;96488.14;109128;1272;25577;-75
2024/02/04 05:31:58;;;;;;;1.80;0.70;;;;;;;5.31;94.37;96482.01;109120;1272;22554;-75
2024/02/04 05:34:30;;;;;;;1.00;0.80;;;;;;;5.29;94.48;96475.15;109122;1266;22657;-75
2024/02/04 05:37:06;;;;;;;1.00;0.40;;;;;;;5.29;94.63;96475.67;109099;1269;22680;-75
2024/02/04 05:39:42;;;;;;;1.00;0.60;;;;;;;5.32;94.98;96479.23;109150;1272;25255;-75
2024/02/04 05:42:13;;;;;;;0.50;0.40;;;;;;;5.32;94.96;96482.54;109127;1273;22549;-75
2024/02/04 05:44:45;;;;;;;0.40;0.30;;;;;;;5.31;94.98;96472.54;109068;1270;23544;-75
2024/02/04 05:47:19;;;;;;;1.20;1.00;;;;;;;5.33;95.22;96474.29;109124;1269;25323;-75
2024/02/04 05:49:50;;;;;;;1.90;1.10;;;;;;;5.36;95.44;96482.55;109086;1269;22490;-75
2024/02/04 05:52:22;;;;;;;1.60;0.90;;;;;;;5.37;95.25;96493.23;109103;1260;22513;-75
2024/02/04 05:54:53;;;;;;;2.70;1.40;;;;;;;5.38;95.53;96493.76;109100;1269;23297;-75
2024/02/04 05:57:29;;;;;;;2.50;1.10;;;;;;;5.37;95.59;96499.16;109105;1266;23777;-75
2024/02/04 06:00:00;;;;;;;3.00;0.90;;;;;;;5.35;95.68;96498.20;109114;1272;24189;-75
2024/02/04 06:02:31;;;;;;;1.40;0.60;;;;;;;5.33;96.03;96494.69;109081;1272;23156;-75
2024/02/04 06:05:03;;;;;;;0.30;0.30;;;;;;;5.32;96.40;96493.09;109092;1272;22569;-75
2024/02/04 06:07:40;;;;;;;0.50;0.40;;;;;;;5.30;96.45;96486.88;109144;1272;22536;-75
2024/02/04 06:10:15;;;;;;;0.70;0.60;;;;;;;5.26;96.49;96478.48;109101;1272;23807;-75
2024/02/04 06:12:49;;;;;;;1.10;0.50;;;;;;;5.24;96.71;96479.09;109086;1269;25407;-75
2024/02/04 06:15:25;;;;;;;0.60;0.30;;;;;;;5.22;96.79;96477.73;109083;1273;22604;-75
2024/02/04 06:17:58;;;;;;;0.30;0.30;;;;;;;5.23;97.21;96485.51;109088;1273;25454;-75
2024/02/04 06:20:30;;;;;;;0.40;0.30;;;;;;;5.26;97.81;96485.23;109104;1273;22554;-75
2024/02/04 06:23:01;;;;;;;0.70;0.50;;;;;;;5.32;98.16;96485.74;109094;1273;22578;-75
2024/02/04 06:25:38;;;;;;;1.30;0.50;;;;;;;5.33;98.31;96492.75;109142;1266;22518;-75
2024/02/04 06:28:12;;;;;;;0.70;0.60;;;;;;;5.38;98.43;96496.80;109096;1269;22524;-75
2024/02/04 06:30:50;;;;;;;1.00;0.90;;;;;;;5.43;99.55;96501.33;109113;1273;22526;-75
2024/02/04 06:33:24;;;;;;;1.60;1.00;;;;;;;5.47;99.92;96511.87;109129;1249;26019;-75
2024/02/04 06:35:57;;;;;;;0.50;0.50;;;;;;;5.47;99.97;96531.01;109127;1273;22539;-75
2024/02/04 06:38:29;;;;;;;0.70;0.70;;;;;;;5.45;99.66;96548.13;109157;1269;23827;-75
2024/02/04 06:41:03;;;;;;;1.60;1.30;;;;;;;5.45;99.21;96537.02;109154;1272;22515;-75
2024/02/04 06:43:37;;;;;;;1.50;1.10;;;;;;;5.44;98.63;96524.09;109085;1269;23412;-75
2024/02/04 06:46:11;;;;;;;0.70;0.60;;;;;;;5.39;96.76;96527.89;109056;1269;22513;-75
2024/02/04 06:48:44;;;;;;;0.70;0.70;;;;;;;5.26;95.01;96522.08;109098;1270;22518;-75
2024/02/04 06:51:15;;;;;;;1.80;0.90;;;;;;;5.18;94.54;96525.39;109122;1272;22540;-75
2024/02/04 06:53:47;;;;;;;1.50;1.10;;;;;;;5.11;94.72;96528.68;109105;1272;24191;-75
2024/02/04 06:56:20;;;;;;;1.70;0.80;;;;;;;5.09;94.71;96523.98;109134;1269;22534;-75
2024/02/04 06:58:51;;;;;;;1.20;0.80;;;;;;;5.13;94.81;96511.14;109136;1269;22550;-75
2024/02/04 07:01:27;;;;;;;1.20;0.80;;;;;;;5.30;94.39;96531.41;109111;1269;22521;-75
2024/02/04 07:03:58;;;;;;;1.30;0.80;;;;;;;5.44;93.94;96534.18;109080;1269;22529;-75
2024/02/04 07:06:32;;;;;;;1.30;1.10;;;;;;;5.54;93.31;96536.30;109127;1273;25287;-75
2024/02/04 07:09:06;;;;;;;2.20;0.90;;;;;;;5.74;93.14;96543.33;109098;1269;23859;-75
2024/02/04 07:11:40;;;;;;;1.80;0.70;;;;;;;5.93;91.63;96542.80;109140;1273;22507;-75
2024/02/04 07:14:14;;;;;;;1.70;1.20;;;;;;;5.85;90.22;96528.70;109076;1269;22575;-75
2024/02/04 07:16:45;;;;;;;1.10;0.80;;;;;;;5.76;90.00;96535.19;109136;1272;24206;-75
2024/02/04 07:19:21;;;;;;;3.00;1.20;;;;;;;5.80;89.77;96520.20;109046;1272;22822;-75
2024/02/04 07:21:53;;;;;;;0.70;0.50;;;;;;;5.82;88.33;96518.05;109099;1272;24263;-75
2024/02/04 07:24:26;;;;;;;1.50;0.90;;;;;;;5.86;88.57;96530.34;109077;1269;22525;-75
2024/02/04 07:27:02;;;;;;;1.70;0.70;;;;;;;5.98;88.02;96538.41;109116;1272;22616;-75
2024/02/04 07:29:39;;;;;;;5.70;0.90;;;;;;;6.06;87.25;96533.59;109107;1272;23868;-75
2024/02/04 07:32:10;;;;;;;3.00;1.20;;;;;;;6.09;84.94;96534.20;109117;1272;22523;-75
2024/02/04 07:34:42;;;;;;;1.40;0.90;;;;;;;6.10;84.59;96534.58;109134;1272;22630;-75
2024/02/04 07:37:17;;;;;;;2.10;0.90;;;;;;;6.00;84.00;96524.38;109090;1272;22654;-75
2024/02/04 07:39:48;;;;;;;1.60;1.10;;;;;;;5.88;83.04;96519.94;109098;1272;22581;-75
2024/02/04 07:42:25;;;;;;;2.30;0.90;;;;;;;5.84;83.30;96533.00;109112;1272;22520;-75
2024/02/04 07:45:01;;;;;;;2.60;0.80;;;;;;;5.82;83.38;96532.20;109085;1267;23855;-75
2024/02/04 07:47:33;;;;;;;0.70;0.50;;;;;;;5.77;83.47;96541.15;109084;1272;23329;-74
2024/02/04 07:50:10;;;;;;;2.50;0.80;;;;;;;5.72;83.51;96540.30;109122;1269;22581;-74
2024/02/04 07:52:42;;;;;;;2.40;0.90;;;;;;;5.69;84.06;96543.23;109113;1272;28845;-74
2024/02/04 07:55:17;;;;;;;2.90;1.10;;;;;;;5.69;84.12;96535.80;109018;1271;22556;-74
2024/02/04 07:57:49;;;;;;;2.20;1.50;;;;;;;5.64;83.18;96528.68;108991;1273;22475;-74
2024/02/04 08:00:22;;;;;;;4.70;0.90;;;;;;;5.62;83.02;96537.20;108980;1274;22586;-74
2024/02/04 08:02:56;;;;;;;3.50;2.00;;;;;;;5.59;83.55;96541.81;109010;1267;22519;-74
2024/02/04 08:05:31;;;;;;;3.00;1.50;;;;;;;5.56;83.80;96543.67;109054;1274;25532;-73
2024/02/04 08:08:05;;;;;;;6.50;1.80;;;;;;;5.51;83.23;96538.84;109025;1274;24221;-74
2024/02/04 08:10:39;;;;;;;3.90;1.30;;;;;;;5.45;83.53;96545.81;109003;1266;23961;-74
2024/02/04 08:13:13;;;;;;;2.00;1.30;;;;;;;5.37;83.98;96556.21;108983;1272;22695;-75
2024/02/04 08:15:48;;;;;;;1.70;0.80;;;;;;;5.30;84.65;96547.34;108982;1273;23363;-74
2024/02/04 08:18:27;;;;;;;1.90;1.20;;;;;;;5.26;85.34;96546.51;109051;1274;22648;-74
2024/02/04 08:21:01;;;;;;;4.60;1.50;;;;;;;5.19;85.98;96549.89;109000;1274;23038;-75
2024/02/04 08:23:33;;;;;;;2.00;1.30;;;;;;;5.12;86.54;96563.89;109009;1273;23228;-74
2024/02/04 08:26:07;;;;;;;5.70;2.30;;;;;;;5.05;87.09;96569.42;109024;1272;22543;-75
2024/02/04 08:28:41;;;;;;;5.70;1.40;;;;;;;5.00;87.68;96555.38;109018;1273;24495;-75
2024/02/04 08:31:15;;;;;;;4.90;2.10;;;;;;;4.95;87.88;96562.54;109066;1274;22556;-75
2024/02/04 08:33:52;;;;;;;4.40;1.60;;;;;;;4.91;87.98;96565.71;109021;1274;23242;-75
2024/02/04 08:36:26;;;;;;;2.90;2.10;;;;;;;4.90;88.45;96559.86;109019;1267;22665;-75
2024/02/04 08:39:04;;;;;;;1.60;1.20;;;;;;;4.90;89.29;96560.50;109071;1273;22534;-75
2024/02/04 08:41:39;;;;;;;3.30;1.60;;;;;;;4.86;89.64;96548.58;109012;1274;23921;-75
2024/02/04 08:44:10;;;;;;;2.90;1.40;;;;;;;4.83;89.98;96563.52;109010;1274;26796;-75
2024/02/04 08:46:44;;;;;;;4.30;1.70;;;;;;;4.80;90.37;96575.41;109017;1274;22656;-75
2024/02/04 08:49:17;;;;;;;4.50;1.70;;;;;;;4.79;90.71;96580.48;109041;1271;25414;-75
2024/02/04 08:51:48;;;;;;;2.80;2.10;;;;;;;4.78;91.30;96567.80;109020;1274;22529;-75
2024/02/04 08:54:21;;;;;;;3.70;1.60;;;;;;;4.71;91.59;96582.58;109087;1272;25117;-75
2024/02/04 08:56:54;;;;;;;2.20;1.20;;;;;;;4.63;91.76;96580.06;109116;1272;22639;-75
2024/02/04 08:59:26;;;;;;;3.40;1.10;;;;;;;4.59;92.18;96563.34;109097;1272;27451;-75
2024/02/04 09:01:57;;;;;;;2.50;1.60;;;;;;;4.54;92.54;96568.00;109125;1272;25449;-75
2024/02/04 09:04:28;;;;;;;3.90;1.50;;;;;;;4.51;92.83;96558.83;109102;1272;24330;-75
2024/02/04 09:07:02;;;;;;;2.20;1.10;;;;;;;4.52;92.73;96567.66;109095;1272;22657;-75
2024/02/04 09:09:41;;;;;;;2.80;1.40;;;;;;;4.52;92.88;96566.55;109105;1272;24185;-75
2024/02/04 09:12:13;;;;;;;1.90;1.20;;;;;;;4.50;93.03;96574.06;109105;1272;22588;-75
2024/02/04 09:14:50;;;;;;;2.20;1.10;;;;;;;4.50;93.08;96576.02;109051;1272;23050;-75
2024/02/04 09:17:22;;;;;;;1.50;1.00;;;;;;;4.46;93.21;96574.35;109071;1255;22577;-75
2024/02/04 09:20:02;;;;;;;1.60;1.10;;;;;;;4.44;93.92;96581.03;109104;1269;22500;-75
2024/02/04 09:22:35;;;;;;;3.20;1.10;;;;;;;4.41;94.01;96581.52;109062;1272;25553;-75
2024/02/04 09:25:11;;;;;;;2.40;1.00;;;;;;;4.42;94.00;96576.44;109132;1270;22587;-75
2024/02/04 09:27:45;;;;;;;4.70;2.50;;;;;;;4.44;94.23;96595.88;109110;1272;24236;-75
2024/02/04 09:30:20;;;;;;;8.70;5.80;;;;;;;4.44;94.63;96594.20;109106;1272;22600;-75
2024/02/04 09:32:52;;;;;;;1.20;1.00;;;;;;;4.39;94.43;96591.66;109099;1272;22565;-75
2024/02/04 09:35:27;;;;;;;3.00;1.10;;;;;;;4.33;94.31;96612.50;109065;1272;22521;-75
2024/02/04 09:38:03;;;;;;;2.10;1.20;;;;;;;4.25;94.38;96603.30;109100;1267;24180;-75
2024/02/04 09:40:40;;;;;;;2.40;0.90;;;;;;;4.21;94.30;96613.08;109130;1270;22838;-75
2024/02/04 09:43:16;;;;;;;1.30;0.70;;;;;;;4.21;94.51;96602.38;109140;1272;22571;-75
2024/02/04 09:45:49;;;;;;;1.60;0.90;;;;;;;4.22;95.07;96594.36;109117;1272;22771;-75
2024/02/04 09:48:25;;;;;;;1.70;1.10;;;;;;;4.30;95.46;96601.96;109125;1272;22892;-75
2024/02/04 09:50:57;;;;;;;0.90;0.60;;;;;;;4.44;95.63;96606.80;109122;1270;23790;-75
2024/02/04 09:53:35;;;;;;;1.50;0.80;;;;;;;4.55;95.65;96609.02;109121;1269;22463;-75
2024/02/04 09:56:15;;;;;;;2.10;0.70;;;;;;;4.63;95.79;96602.84;109122;1266;22603;-75
2024/02/04 09:58:52;;;;;;;1.90;0.70;;;;;;;4.75;95.99;96601.70;109118;1273;22533;-75
2024/02/04 10:01:27;;;;;;;1.70;1.10;;;;;;;4.97;96.25;96589.34;109089;1270;22525;-75
2024/02/04 10:04:02;;;;;;;1.10;0.60;;;;;;;5.16;96.26;96588.80;109141;1267;23188;-75
2024/02/04 10:06:37;;;;;;;1.50;1.00;;;;;;;5.35;95.99;96588.77;109127;1269;22521;-75
2024/02/04 10:09:15;;;;;;;2.40;1.10;;;;;;;5.50;95.62;96573.00;109130;1270;22473;-75
2024/02/04 10:11:47;;;;;;;1.40;1.10;;;;;;;5.43;95.19;96570.98;109117;1273;23872;-75
2024/02/04 10:14:20;;;;;;;2.30;1.20;;;;;;;5.24;94.66;96571.55;109110;1267;27959;-75
2024/02/04 10:16:59;;;;;;;1.40;1.00;;;;;;;5.08;94.72;96581.39;109117;1272;22534;-75
2024/02/04 10:19:36;;;;;;;2.00;0.70;;;;;;;4.94;94.78;96596.72;109133;1267;22642;-75
2024/02/04 10:22:08;;;;;;;4.70;3.20;;;;;;;4.82;94.84;96594.55;109217;1272;24192;-75
2024/02/04 10:24:43;;;;;;;3.10;1.50;;;;;;;4.85;95.09;96579.09;109118;1273;22823;-75
2024/02/04 10:27:19;;;;;;;1.30;0.90;;;;;;;4.97;95.54;96569.59;109164;1270;25259;-75
2024/02/04 10:29:52;;;;;;;1.70;1.00;;;;;;;5.20;95.70;96561.63;109091;1273;22565;-75
2024/02/04 10:32:27;;;;;;;1.90;1.30;;;;;;;5.36;95.48;96558.98;109101;1266;25376;-75
2024/02/04 10:35:01;;;;;;;3.80;1.70;;;;;;;5.52;95.34;96535.73;109059;1272;22701;-75
2024/02/04 10:37:38;;;;;;;1.00;0.80;;;;;;;5.80;94.50;96528.29;109197;1249;22535;-75
2024/02/04 10:40:15;;;;;;;3.20;1.30;;;;;;;6.02;93.30;96527.82;109161;1269;22526;-75
2024/02/04 10:42:50;;;;;;;1.80;1.00;;;;;;;6.10;92.77;96525.26;109092;1267;22546;-75
2024/02/04 10:45:26;;;;;;;1.60;0.90;;;;;;;6.32;91.70;96519.99;109122;1266;22579;-75
2024/02/04 10:48:06;;;;;;;0.80;0.80;;;;;;;6.47;90.02;96511.20;109159;1273;22548;-75
2024/02/04 10:50:39;;;;;;;;;;;;;;;6.65;89.32;96502.24;109122;1272;22666;-75
2024/02/04 10:53:16;;;;;;;1.60;1.10;;;;;;;6.79;89.10;96499.00;109158;1272;23686;-75
2024/02/04 10:55:50;;;;;;;2.60;1.40;;;;;;;6.82;88.45;96490.27;109135;1270;23383;-74
2024/02/04 10:58:23;;;;;;;1.60;0.90;;;;;;;6.90;88.39;96491.09;109172;1269;22556;-75
2024/02/04 11:00:56;;;;;;;2.70;1.40;;;;;;;6.89;86.89;96481.38;109161;1267;22545;-74
2024/02/04 11:03:29;;;;;;;2.60;1.40;;;;;;;6.82;86.21;96481.72;109202;1273;22570;-75
2024/02/04 11:06:02;;;;;;;2.80;1.50;;;;;;;6.71;85.37;96482.79;109170;1267;22462;-74
2024/02/04 11:08:42;;;;;;;2.90;1.40;;;;;;;6.56;85.30;96478.02;109087;1266;22511;-74
2024/02/04 11:11:13;;;;;;;;;;;;;;;6.56;85.96;96478.17;109152;1267;22589;-74
2024/02/04 11:13:52;;;;;;;1.90;1.20;;;;;;;6.60;86.25;96471.55;109119;1270;22524;-75
2024/02/04 11:16:53;;;;;;;2.20;0.90;;;;;;;6.68;86.44;96476.55;109101;1273;24180;-75
2024/02/04 11:19:38;;;;;;;3.40;1.80;;;;;;;6.66;86.22;96465.95;109119;1257;22527;-75
2024/02/04 11:22:30;;;;;;;2.20;1.20;;;;;;;6.65;86.54;96466.85;109151;1251;22536;-75
2024/02/04 11:25:33;;;;;;;1.70;0.90;;;;;;;6.62;86.39;96457.30;109136;1273;25863;-75
2024/02/04 11:28:07;;;;;;;4.10;1.60;;;;;;;6.58;85.55;96448.20;109165;1272;23802;-75
2024/02/04 11:30:46;;;;;;;2.90;1.20;;;;;;;6.60;86.09;96451.36;109165;1270;22532;-75
2024/02/04 11:33:28;;;;;;;2.20;1.40;;;;;;;6.52;85.74;96448.23;109132;1272;23686;-75
2024/02/04 11:36:07;;;;;;;2.20;1.50;;;;;;;6.37;85.60;96454.80;109135;1270;22528;-75
2024/02/04 11:38:43;;;;;;;4.40;2.30;;;;;;;6.25;85.52;96454.14;109194;1266;22548;-75
2024/02/04 11:41:29;;;;;;;4.00;2.20;;;;;;;6.10;85.95;96459.10;109077;1272;22524;-75
2024/02/04 11:44:11;;;;;;;3.30;2.00;;;;;;;5.99;86.79;96461.33;109123;1267;25958;-75
2024/02/04 11:46:52;;;;;;;3.10;1.90;;;;;;;5.90;87.68;96445.56;109114;1267;22921;-75
2024/02/04 11:49:28;;;;;;;2.10;1.50;;;;;;;5.85;88.49;96441.98;109173;1273;22547;-75
2024/02/04 11:52:10;;;;;;;4.40;2.40;;;;;;;5.84;89.20;96437.30;109090;1273;22602;-75
2024/02/04 11:54:45;;;;;;;3.00;1.60;;;;;;;5.86;89.72;96435.31;109151;1250;22582;-75
2024/02/04 11:57:21;;;;;;;3.40;2.10;;;;;;;6.00;90.27;96424.29;109142;1267;22525;-75
2024/02/04 11:59:55;;;;;;;2.80;1.40;;;;;;;6.20;90.99;96413.41;109132;1272;25410;-75
2024/02/04 12:02:28;;;;;;;3.20;2.00;;;;;;;6.45;90.99;96408.86;109018;1272;150336;-75
2024/02/04 12:05:07;;;;;;;2.40;1.80;;;;;;;6.53;90.44;96412.33;109083;1272;22509;-75